createdAt,value
2022-12-24T00:00:28.016Z,7.18
2022-12-24T00:02:56.116Z,6.90
2022-12-24T00:05:24.228Z,7.40
2022-12-24T00:07:52.439Z,6.63
2022-12-24T00:10:21.985Z,5.75
2022-12-24T00:12:49.943Z,6.97
2022-12-24T00:15:17.928Z,7.57
2022-12-24T00:17:45.855Z,6.97
2022-12-24T00:20:14.056Z,6.97
2022-12-24T00:22:42.029Z,6.65
2022-12-24T00:25:10.752Z,7.35
2022-12-24T00:27:40.032Z,7.00
2022-12-24T00:30:09.491Z,7.20
2022-12-24T00:32:38.786Z,6.95
2022-12-24T00:35:07.643Z,6.80
2022-12-24T00:37:35.604Z,6.47
2022-12-24T00:40:03.645Z,5.85
2022-12-24T00:42:31.628Z,6.35
2022-12-24T00:45:00.878Z,6.78
2022-12-24T00:47:28.908Z,6.50
2022-12-24T00:49:56.943Z,6.82
2022-12-24T00:52:24.975Z,6.20
2022-12-24T00:54:53.148Z,6.55
2022-12-24T00:57:21.156Z,6.90
2022-12-24T00:59:49.147Z,6.43
2022-12-24T01:02:18.660Z,5.88
2022-12-24T01:05:04.298Z,5.95
2022-12-24T01:07:32.240Z,6.03
2022-12-24T01:10:00.241Z,5.60
2022-12-24T01:12:28.406Z,7.07
2022-12-24T01:14:56.353Z,6.88
2022-12-24T01:17:25.699Z,6.90
2022-12-24T01:19:53.623Z,6.07
2022-12-24T01:22:21.631Z,7.57
2022-12-24T01:24:49.666Z,7.57
2022-12-24T01:27:17.759Z,7.57
2022-12-24T01:29:45.704Z,6.07
2022-12-24T01:32:13.740Z,6.57
2022-12-24T01:34:43.159Z,5.72
2022-12-24T01:37:11.187Z,6.85
2022-12-24T01:39:39.143Z,6.30
2022-12-24T01:42:36.554Z,7.43
2022-12-24T01:45:36.290Z,6.37
2022-12-24T01:48:04.534Z,7.40
2022-12-24T01:50:33.946Z,7.50
2022-12-24T01:53:02.115Z,7.30
2022-12-24T01:55:30.144Z,6.72
2022-12-24T01:58:00.623Z,7.15
2022-12-24T02:00:28.702Z,6.00
2022-12-24T02:02:56.945Z,6.05
2022-12-24T02:05:30.376Z,5.60
2022-12-24T02:08:01.544Z,7.47
2022-12-24T02:10:29.593Z,6.38
2022-12-24T02:12:59.088Z,6.20
2022-12-24T02:15:29.939Z,5.32
2022-12-24T02:18:03.419Z,6.10
2022-12-24T02:20:58.544Z,5.50
2022-12-24T02:23:55.850Z,6.90
2022-12-24T02:26:44.132Z,5.40
2022-12-24T02:29:38.496Z,5.53
2022-12-24T02:32:13.339Z,5.20
2022-12-24T02:34:46.689Z,5.95
2022-12-24T02:37:18.377Z,4.88
2022-12-24T02:39:52.127Z,6.95
2022-12-24T02:42:25.153Z,4.97
2022-12-24T02:44:57.193Z,4.97
2022-12-24T02:47:31.000Z,5.55
2022-12-24T02:50:02.997Z,4.90
2022-12-24T02:52:33.465Z,4.95
2022-12-24T02:55:05.118Z,4.65
2022-12-24T02:57:46.673Z,5.15
2022-12-24T03:00:20.690Z,5.10
2022-12-24T03:03:09.919Z,5.43
2022-12-24T03:05:45.512Z,5.03
2022-12-24T03:08:18.352Z,5.60
2022-12-24T03:10:54.872Z,5.85
2022-12-24T03:13:24.556Z,5.95
2022-12-24T03:15:53.295Z,4.82
2022-12-24T03:18:25.722Z,5.47
2022-12-24T03:21:01.600Z,5.50
2022-12-24T03:23:29.667Z,5.65
2022-12-24T03:25:58.027Z,6.18
2022-12-24T03:28:28.808Z,6.47
2022-12-24T03:30:57.144Z,6.50
2022-12-24T03:33:26.448Z,5.83
2022-12-24T03:35:54.403Z,6.65
2022-12-24T03:38:22.731Z,6.30
2022-12-24T03:40:50.796Z,8.48
2022-12-24T03:43:18.772Z,7.05
2022-12-24T03:45:46.759Z,7.40
2022-12-24T03:48:14.786Z,7.50
2022-12-24T03:50:44.134Z,7.50
2022-12-24T03:53:12.122Z,6.38
2022-12-24T03:55:40.311Z,7.47
2022-12-24T03:58:08.317Z,5.95
2022-12-24T04:00:36.516Z,7.25
2022-12-24T04:03:04.531Z,6.50
2022-12-24T04:05:32.619Z,6.25
2022-12-24T04:08:01.911Z,6.70
2022-12-24T04:10:29.903Z,6.60
2022-12-24T04:12:57.863Z,7.20
2022-12-24T04:15:25.847Z,6.30
2022-12-24T04:17:53.787Z,6.43
2022-12-24T04:20:21.758Z,7.38
2022-12-24T04:22:49.782Z,5.80
2022-12-24T04:25:19.119Z,6.10
2022-12-24T04:27:47.127Z,6.40
2022-12-24T04:30:15.555Z,6.55
2022-12-24T04:32:43.588Z,5.20
2022-12-24T04:35:11.548Z,6.20
2022-12-24T04:37:39.587Z,7.10
2022-12-24T04:40:08.889Z,5.35
2022-12-24T04:42:38.693Z,5.87
2022-12-24T04:45:07.503Z,6.07
2022-12-24T04:47:35.535Z,6.30
2022-12-24T04:50:03.487Z,6.45
2022-12-24T04:52:31.439Z,6.03
2022-12-24T04:54:59.448Z,5.70
2022-12-24T04:57:27.619Z,7.03
2022-12-24T04:59:56.973Z,5.75
2022-12-24T05:02:25.315Z,5.93
2022-12-24T05:04:53.431Z,5.80
2022-12-24T05:07:21.395Z,6.40
2022-12-24T05:09:49.326Z,5.80
2022-12-24T05:12:17.334Z,5.35
2022-12-24T05:14:45.307Z,6.28
2022-12-24T05:17:14.663Z,6.93
2022-12-24T05:19:42.662Z,4.88
2022-12-24T05:22:28.010Z,6.15
2022-12-24T05:25:13.445Z,5.87
2022-12-24T05:27:46.006Z,7.20
2022-12-24T05:30:17.197Z,7.23
2022-12-24T05:32:46.463Z,5.50
2022-12-24T05:35:14.677Z,5.80
2022-12-24T05:37:42.706Z,7.07
2022-12-24T05:40:11.453Z,7.22
2022-12-24T05:42:39.480Z,8.03
2022-12-24T05:45:08.754Z,6.63
2022-12-24T05:47:42.903Z,7.28
2022-12-24T05:50:13.411Z,6.97
2022-12-24T05:52:41.428Z,6.82
2022-12-24T05:55:10.232Z,7.50
2022-12-24T05:57:38.201Z,7.85
2022-12-24T06:00:07.580Z,7.30
2022-12-24T06:02:35.631Z,7.35
2022-12-24T06:05:03.777Z,7.60
2022-12-24T06:07:33.200Z,8.48
2022-12-24T06:10:01.217Z,7.18
2022-12-24T06:12:29.412Z,7.03
2022-12-24T06:14:57.411Z,7.15
2022-12-24T06:17:25.424Z,7.50
2022-12-24T06:19:53.394Z,8.38
2022-12-24T06:22:21.371Z,7.40
2022-12-24T06:24:50.705Z,7.10
2022-12-24T06:27:19.263Z,8.00
2022-12-24T06:29:47.295Z,8.10
2022-12-24T06:32:15.297Z,8.55
2022-12-24T06:34:43.266Z,8.10
2022-12-24T06:37:18.294Z,7.00
2022-12-24T06:39:47.041Z,6.47
2022-12-24T06:42:16.418Z,7.50
2022-12-24T06:44:44.391Z,8.10
2022-12-24T06:47:12.364Z,8.43
2022-12-24T06:49:40.350Z,7.75
2022-12-24T06:52:08.347Z,8.23
2022-12-24T06:54:36.285Z,8.07
2022-12-24T06:57:04.319Z,8.30
2022-12-24T06:59:33.724Z,8.65
2022-12-24T07:02:01.899Z,8.60
2022-12-24T07:04:31.123Z,8.82
2022-12-24T07:06:59.233Z,7.70
2022-12-24T07:09:27.160Z,7.90
2022-12-24T07:11:55.147Z,8.30
2022-12-24T07:14:23.146Z,7.78
2022-12-24T07:16:58.733Z,7.55
2022-12-24T07:19:27.298Z,8.30
2022-12-24T07:21:55.317Z,8.10
2022-12-24T07:24:23.375Z,6.80
2022-12-24T07:26:51.747Z,7.07
2022-12-24T07:29:19.747Z,8.45
2022-12-24T07:31:47.816Z,7.80
2022-12-24T07:34:17.379Z,8.20
2022-12-24T07:36:45.619Z,8.02
2022-12-24T07:39:13.637Z,8.32
2022-12-24T07:41:42.013Z,7.43
2022-12-24T07:44:12.813Z,7.63
2022-12-24T07:46:41.188Z,8.55
2022-12-24T07:49:09.254Z,7.47
2022-12-24T07:51:38.946Z,8.35
2022-12-24T07:54:07.145Z,9.20
2022-12-24T07:56:35.423Z,7.73
2022-12-24T07:59:03.402Z,8.40
2022-12-24T08:01:31.412Z,8.50
2022-12-24T08:03:59.529Z,9.27
2022-12-24T08:06:27.597Z,8.20
2022-12-24T08:08:57.016Z,7.53
2022-12-24T08:11:24.974Z,8.38
2022-12-24T08:13:52.923Z,7.85
2022-12-24T08:16:20.986Z,8.40
2022-12-24T08:18:49.002Z,8.25
2022-12-24T08:21:17.061Z,7.50
2022-12-24T08:23:45.134Z,7.55
2022-12-24T08:26:14.846Z,7.25
2022-12-24T08:28:42.974Z,8.80
2022-12-24T08:31:11.083Z,8.00
2022-12-24T08:33:39.137Z,7.63
2022-12-24T08:36:07.609Z,7.68
2022-12-24T08:38:35.602Z,7.75
2022-12-24T08:41:03.912Z,9.25
2022-12-24T08:43:33.216Z,7.57
2022-12-24T08:46:05.019Z,7.30
2022-12-24T08:48:33.163Z,7.15
2022-12-24T08:51:01.290Z,8.10
2022-12-24T08:53:29.275Z,8.73
2022-12-24T08:56:04.005Z,8.10
2022-12-24T08:58:33.927Z,8.00
2022-12-24T09:01:02.674Z,7.38
2022-12-24T09:03:30.923Z,7.93
2022-12-24T09:05:58.897Z,7.90
2022-12-24T09:08:26.855Z,7.25
2022-12-24T09:10:54.873Z,7.45
2022-12-24T09:13:22.794Z,8.68
2022-12-24T09:15:56.181Z,7.90
2022-12-24T09:18:24.257Z,6.68
2022-12-24T09:20:57.043Z,9.13
2022-12-24T09:23:25.636Z,7.00
2022-12-24T09:25:53.676Z,8.13
2022-12-24T09:28:22.028Z,7.07
2022-12-24T09:30:59.247Z,6.80
2022-12-24T09:33:27.670Z,7.88
2022-12-24T09:35:55.768Z,8.32
2022-12-24T09:38:24.219Z,7.05
2022-12-24T09:40:53.439Z,7.30
2022-12-24T09:43:24.195Z,6.13
2022-12-24T09:46:06.710Z,7.03
2022-12-24T09:48:37.544Z,7.68
2022-12-24T09:51:09.691Z,7.03
2022-12-24T09:53:43.250Z,6.40
2022-12-24T09:56:16.985Z,7.20
2022-12-24T09:58:48.676Z,7.60
2022-12-24T10:01:19.983Z,6.87
2022-12-24T10:03:49.047Z,7.18
2022-12-24T10:06:26.866Z,6.25
2022-12-24T10:09:10.111Z,6.70
2022-12-24T10:11:47.083Z,6.30
2022-12-24T10:14:27.331Z,7.00
2022-12-24T10:17:07.977Z,6.30
2022-12-24T10:19:45.269Z,6.63
2022-12-24T10:22:24.213Z,6.43
2022-12-24T10:25:00.310Z,6.93
2022-12-24T10:27:33.401Z,7.10
2022-12-24T10:30:09.301Z,8.17
2022-12-24T10:32:43.498Z,7.00
2022-12-24T10:35:21.567Z,6.10
2022-12-24T10:37:50.986Z,6.03
2022-12-24T10:40:26.633Z,7.10
2022-12-24T10:42:54.778Z,6.03
2022-12-24T10:45:26.837Z,7.13
2022-12-24T10:48:03.404Z,6.70
2022-12-24T10:50:35.608Z,7.28
2022-12-24T10:53:13.805Z,5.90
2022-12-24T10:55:42.429Z,5.82
2022-12-24T10:58:16.896Z,6.80
2022-12-24T11:00:51.865Z,7.05
2022-12-24T11:03:29.490Z,6.65
2022-12-24T11:06:08.892Z,5.88
2022-12-24T11:08:39.177Z,5.60
2022-12-24T11:11:09.431Z,6.32
2022-12-24T11:13:40.986Z,6.93
2022-12-24T11:16:22.008Z,5.18
2022-12-24T11:18:53.568Z,6.45
2022-12-24T11:21:24.770Z,6.03
2022-12-24T11:23:56.714Z,5.47
2022-12-24T11:26:27.075Z,5.78
2022-12-24T11:29:16.251Z,5.72
2022-12-24T11:31:45.269Z,5.55
2022-12-24T11:34:26.029Z,5.80
2022-12-24T11:36:56.437Z,5.85
2022-12-24T11:39:26.729Z,5.43
2022-12-24T11:41:55.265Z,4.70
2022-12-24T11:44:27.019Z,6.32
2022-12-24T11:46:57.593Z,6.40
2022-12-24T11:49:28.832Z,6.38
2022-12-24T11:52:23.242Z,6.25
2022-12-24T11:55:16.928Z,5.57
2022-12-24T11:57:53.049Z,5.95
2022-12-24T12:00:21.171Z,5.72
2022-12-24T12:02:52.606Z,5.72
2022-12-24T12:05:26.313Z,6.45
2022-12-24T12:07:58.033Z,5.60
2022-12-24T12:10:29.390Z,5.70
2022-12-24T12:13:02.047Z,6.45
2022-12-24T12:15:35.323Z,6.80
2022-12-24T12:18:10.605Z,6.90
2022-12-24T12:20:44.748Z,7.05
2022-12-24T12:23:17.532Z,5.90
2022-12-24T12:25:51.168Z,6.45
2022-12-24T12:28:24.159Z,6.85
2022-12-24T12:31:02.321Z,5.65
2022-12-24T12:33:38.935Z,5.10
2022-12-24T12:36:11.602Z,4.90
2022-12-24T12:38:41.300Z,5.40
2022-12-24T12:41:24.962Z,6.13
2022-12-24T12:44:12.632Z,5.13
2022-12-24T12:46:53.458Z,5.55
2022-12-24T12:49:32.327Z,5.32
2022-12-24T12:52:10.230Z,4.75
2022-12-24T12:54:51.768Z,5.40
2022-12-24T12:57:25.362Z,4.78
2022-12-24T12:59:56.763Z,5.20
2022-12-24T13:02:46.769Z,5.40
2022-12-24T13:05:52.252Z,4.53
2022-12-24T13:08:39.137Z,5.90
2022-12-24T13:11:27.821Z,5.35
2022-12-24T13:14:23.603Z,4.93
2022-12-24T13:17:09.858Z,4.72
2022-12-24T13:19:49.875Z,5.40
2022-12-24T13:22:19.999Z,5.15
2022-12-24T13:24:52.693Z,4.88
2022-12-24T13:27:24.211Z,5.35
2022-12-24T13:29:59.985Z,5.77
2022-12-24T13:32:51.093Z,5.35
2022-12-24T13:35:38.554Z,5.82
2022-12-24T13:38:43.701Z,5.83
2022-12-24T13:41:50.761Z,4.53
2022-12-24T13:44:21.462Z,5.88
2022-12-24T13:46:56.488Z,4.80
2022-12-24T13:49:32.112Z,5.45
2022-12-24T13:52:22.615Z,6.28
2022-12-24T13:55:05.534Z,5.85
2022-12-24T13:57:39.573Z,6.22
2022-12-24T14:00:24.575Z,5.43
2022-12-24T14:02:57.845Z,5.20
2022-12-24T14:05:32.788Z,5.20
2022-12-24T14:08:02.567Z,5.40
2022-12-24T14:10:33.537Z,6.38
2022-12-24T14:13:09.048Z,5.20
2022-12-24T14:16:04.470Z,5.40
2022-12-24T14:18:36.329Z,5.22
2022-12-24T14:21:06.692Z,5.43
2022-12-24T14:23:46.139Z,4.93
2022-12-24T14:26:18.311Z,4.90
2022-12-24T14:28:56.046Z,5.47
2022-12-24T14:31:24.447Z,5.35
2022-12-24T14:33:52.816Z,5.50
2022-12-24T14:36:24.499Z,6.03
2022-12-24T14:38:53.292Z,5.65
2022-12-24T14:41:32.637Z,5.70
2022-12-24T14:44:09.708Z,5.28
2022-12-24T14:46:45.061Z,5.38
2022-12-24T14:49:25.978Z,5.40
2022-12-24T14:52:02.970Z,5.50
2022-12-24T14:54:36.894Z,5.85
2022-12-24T14:57:23.586Z,6.78
2022-12-24T14:59:54.935Z,5.50
2022-12-24T15:02:44.871Z,6.00
2022-12-24T15:05:15.997Z,5.53
2022-12-24T15:07:48.438Z,6.28
2022-12-24T15:10:30.111Z,6.20
2022-12-24T15:13:02.301Z,5.38
2022-12-24T15:15:32.393Z,5.70
2022-12-24T15:18:01.177Z,5.75
2022-12-24T15:20:32.575Z,5.82
2022-12-24T15:23:00.732Z,6.30
2022-12-24T15:25:31.617Z,5.18
2022-12-24T15:28:00.247Z,6.05
2022-12-24T15:30:30.538Z,6.30
2022-12-24T15:33:00.602Z,6.10
2022-12-24T15:35:44.343Z,6.38
2022-12-24T15:38:25.466Z,6.50
2022-12-24T15:40:54.172Z,6.72
2022-12-24T15:43:22.420Z,6.63
2022-12-24T15:45:50.809Z,6.43
2022-12-24T15:48:24.873Z,6.27
2022-12-24T15:50:55.701Z,5.70
2022-12-24T15:53:28.170Z,5.70
2022-12-24T15:56:09.054Z,6.30
2022-12-24T15:58:38.918Z,6.50
2022-12-24T16:01:28.872Z,6.45
2022-12-24T16:04:00.388Z,5.82
2022-12-24T16:06:56.215Z,5.55
2022-12-24T16:09:42.576Z,5.50
2022-12-24T16:12:18.843Z,6.10
2022-12-24T16:14:53.633Z,5.57
2022-12-24T16:17:24.224Z,6.32
2022-12-24T16:19:54.917Z,5.60
2022-12-24T16:22:36.088Z,6.53
2022-12-24T16:25:22.987Z,6.32
2022-12-24T16:27:51.417Z,6.60
2022-12-24T16:30:19.628Z,5.72
2022-12-24T16:32:50.940Z,5.50
2022-12-24T16:35:26.447Z,5.82
2022-12-24T16:37:56.462Z,6.22
2022-12-24T16:40:27.712Z,6.20
2022-12-24T16:43:14.269Z,7.47
2022-12-24T16:45:42.574Z,5.78
2022-12-24T16:48:17.736Z,5.63
2022-12-24T16:50:45.770Z,6.82
2022-12-24T16:53:17.831Z,6.30
2022-12-24T16:55:47.636Z,7.47
2022-12-24T16:58:17.439Z,7.07
2022-12-24T17:00:46.515Z,7.18
2022-12-24T17:03:15.057Z,5.93
2022-12-24T17:05:44.733Z,6.40
2022-12-24T17:08:13.658Z,6.70
2022-12-24T17:10:51.235Z,7.30
2022-12-24T17:13:19.171Z,6.97
2022-12-24T17:15:47.256Z,6.18
2022-12-24T17:18:15.381Z,6.97
2022-12-24T17:20:43.361Z,6.47
2022-12-24T17:23:11.334Z,6.93
2022-12-24T17:25:39.284Z,7.10
2022-12-24T17:28:08.586Z,6.22
2022-12-24T17:30:36.540Z,7.37
2022-12-24T17:33:08.073Z,6.60
2022-12-24T17:35:41.324Z,7.88
2022-12-24T17:38:09.289Z,7.35
2022-12-24T17:40:37.257Z,7.95
2022-12-24T17:44:13.278Z,10.32
2022-12-24T17:46:41.473Z,9.60
2022-12-24T17:49:09.654Z,9.98
2022-12-24T17:51:44.828Z,11.50
2022-12-24T17:54:13.486Z,12.30
2022-12-24T17:56:41.481Z,16.73
2022-12-24T17:59:59.694Z,15.50
2022-12-24T18:02:27.915Z,16.48
2022-12-24T18:04:56.049Z,16.52
2022-12-24T18:07:23.984Z,15.55
2022-12-24T18:09:51.898Z,15.70
2022-12-24T18:12:19.919Z,18.33
2022-12-24T18:14:47.877Z,22.73
2022-12-24T18:17:17.239Z,43.13
2022-12-24T18:19:45.268Z,64.78
2022-12-24T18:22:13.233Z,54.55
2022-12-24T18:24:41.272Z,28.23
2022-12-24T18:27:09.248Z,29.13
2022-12-24T18:29:41.483Z,21.77
2022-12-24T18:32:12.212Z,17.58
2022-12-24T18:34:41.545Z,17.63
2022-12-24T18:37:09.542Z,17.98
2022-12-24T18:39:37.621Z,16.65
2022-12-24T18:42:06.860Z,17.73
2022-12-24T18:44:34.802Z,16.60
2022-12-24T18:47:02.824Z,16.53
2022-12-24T18:49:30.886Z,15.95
2022-12-24T18:52:00.311Z,17.30
2022-12-24T18:54:28.299Z,16.65
2022-12-24T18:56:56.310Z,17.33
2022-12-24T18:59:24.467Z,16.92
2022-12-24T19:01:52.551Z,15.90
2022-12-24T19:04:20.605Z,17.38
2022-12-24T19:06:52.900Z,16.52
2022-12-24T19:09:22.531Z,17.58
2022-12-24T19:11:50.507Z,16.77
2022-12-24T19:14:20.164Z,15.75
2022-12-24T19:16:48.275Z,16.08
2022-12-24T19:19:16.539Z,16.05
2022-12-24T19:21:44.642Z,15.77
2022-12-24T19:24:14.310Z,16.30
2022-12-24T19:26:43.644Z,16.65
2022-12-24T19:29:11.679Z,15.93
2022-12-24T19:31:39.778Z,15.90
2022-12-24T19:34:07.856Z,16.95
2022-12-24T19:36:35.964Z,17.25
2022-12-24T19:39:03.975Z,14.82
2022-12-24T19:41:32.372Z,16.67
2022-12-24T19:44:02.833Z,16.25
2022-12-24T19:46:32.767Z,15.40
2022-12-24T19:49:04.984Z,15.30
2022-12-24T19:51:33.137Z,15.30
2022-12-24T19:54:02.070Z,15.95
2022-12-24T19:56:33.184Z,16.80
2022-12-24T19:59:03.101Z,15.20
2022-12-24T20:01:33.360Z,16.10
2022-12-24T20:04:02.433Z,15.50
2022-12-24T20:06:32.417Z,14.63
2022-12-24T20:09:01.241Z,16.25
2022-12-24T20:11:29.752Z,15.80
2022-12-24T20:13:58.980Z,14.25
2022-12-24T20:16:29.492Z,14.93
2022-12-24T20:18:59.816Z,15.95
2022-12-24T20:21:28.487Z,14.77
2022-12-24T20:23:56.907Z,15.27
2022-12-24T20:26:26.707Z,14.85
2022-12-24T20:28:54.820Z,15.00
2022-12-24T20:31:25.234Z,13.60
2022-12-24T20:33:54.628Z,12.88
2022-12-24T20:36:23.722Z,14.65
2022-12-24T20:38:52.032Z,13.10
2022-12-24T20:41:22.669Z,13.57
2022-12-24T20:43:51.451Z,14.03
2022-12-24T20:46:21.617Z,13.73
2022-12-24T20:48:49.744Z,14.43
2022-12-24T20:51:24.763Z,13.35
2022-12-24T20:53:54.577Z,13.85
2022-12-24T20:56:23.260Z,12.75
2022-12-24T20:58:51.399Z,13.60
2022-12-24T21:01:21.168Z,13.50
2022-12-24T21:03:49.232Z,13.10
2022-12-24T21:06:19.378Z,13.68
2022-12-24T21:08:49.115Z,12.77
2022-12-24T21:11:34.576Z,13.85
2022-12-24T21:14:03.002Z,12.77
2022-12-24T21:16:31.222Z,13.40
2022-12-24T21:18:59.478Z,13.95
2022-12-24T21:21:28.874Z,12.55
2022-12-24T21:23:56.892Z,12.50
2022-12-24T21:26:25.274Z,13.10
2022-12-24T21:28:53.319Z,12.80
2022-12-24T21:31:21.496Z,12.63
2022-12-24T21:33:49.605Z,13.02
2022-12-24T21:36:18.169Z,14.07
2022-12-24T21:38:47.920Z,13.35
2022-12-24T21:41:18.036Z,12.83
2022-12-24T21:43:46.765Z,13.57
2022-12-24T21:46:17.380Z,13.27
2022-12-24T21:49:03.603Z,13.55
2022-12-24T21:51:32.176Z,13.20
2022-12-24T21:54:18.768Z,14.18
2022-12-24T21:57:04.575Z,13.10
2022-12-24T21:59:32.669Z,13.15
2022-12-24T22:02:01.103Z,14.07
2022-12-24T22:04:29.446Z,13.20
2022-12-24T22:07:14.828Z,13.02
2022-12-24T22:10:01.667Z,13.32
2022-12-24T22:12:32.169Z,12.82
2022-12-24T22:15:00.824Z,13.73
2022-12-24T22:17:29.529Z,12.60
2022-12-24T22:19:57.571Z,12.43
2022-12-24T22:22:25.549Z,12.00
2022-12-24T22:24:54.891Z,12.48
2022-12-24T22:27:23.917Z,12.77
2022-12-24T22:29:51.871Z,12.95
2022-12-24T22:32:19.869Z,12.35
2022-12-24T22:34:49.389Z,12.30
2022-12-24T22:37:17.686Z,13.13
2022-12-24T22:39:45.767Z,12.98
2022-12-24T22:42:15.168Z,12.02
2022-12-24T22:44:43.079Z,12.40
2022-12-24T22:47:11.086Z,11.50
2022-12-24T22:49:39.358Z,11.43
2022-12-24T22:52:07.320Z,13.48
2022-12-24T22:54:36.687Z,12.43
2022-12-24T22:57:04.730Z,12.30
2022-12-24T22:59:34.120Z,12.43
2022-12-24T23:02:05.313Z,11.48
2022-12-24T23:04:36.360Z,12.70
2022-12-24T23:07:04.345Z,12.40
2022-12-24T23:09:32.337Z,11.00
2022-12-24T23:12:00.252Z,11.90
2022-12-24T23:14:45.712Z,11.60
2022-12-24T23:17:15.455Z,12.85
2022-12-24T23:19:43.715Z,12.23
2022-12-24T23:22:12.878Z,11.48
2022-12-24T23:24:41.468Z,11.30
2022-12-24T23:27:09.485Z,11.85
2022-12-24T23:29:37.451Z,11.95
2022-12-24T23:32:05.832Z,12.27
2022-12-24T23:34:35.221Z,11.30
2022-12-24T23:37:03.244Z,11.43
2022-12-24T23:39:31.174Z,11.48
2022-12-24T23:41:59.175Z,12.40
2022-12-24T23:44:32.203Z,11.63
2022-12-24T23:47:01.045Z,11.02
2022-12-24T23:49:29.121Z,11.65
2022-12-24T23:51:58.478Z,12.13
2022-12-24T23:54:26.497Z,11.60
2022-12-24T23:56:54.533Z,11.20
2022-12-24T23:59:22.627Z,11.33
